createdAt,value
2022-11-08T00:00:10.235Z,97820.88
2022-11-08T00:02:39.423Z,97819.91
2022-11-08T00:05:25.544Z,97820.59
2022-11-08T00:08:11.065Z,97788.78
2022-11-08T00:10:56.746Z,97796.06
2022-11-08T00:13:43.963Z,97780.47
2022-11-08T00:16:12.105Z,97810.22
2022-11-08T00:18:40.141Z,97784.66
2022-11-08T00:21:08.403Z,97787.94
2022-11-08T00:23:36.434Z,97789.38
2022-11-08T00:26:04.583Z,97770.06
2022-11-08T00:28:33.911Z,97781.59
2022-11-08T00:31:06.576Z,97773.53
2022-11-08T00:33:34.824Z,97800.16
2022-11-08T00:36:03.666Z,97785.06
2022-11-08T00:38:31.775Z,97784.97
2022-11-08T00:40:59.751Z,97768.53
2022-11-08T00:43:27.874Z,97763.09
2022-11-08T00:45:57.242Z,97759.50
2022-11-08T00:48:25.336Z,97783.72
2022-11-08T00:50:53.335Z,97765.41
2022-11-08T00:53:21.795Z,97766.75
2022-11-08T00:55:49.792Z,97754.06
2022-11-08T00:58:19.451Z,97741.78
2022-11-08T01:00:50.375Z,97752.13
2022-11-08T01:03:19.842Z,97752.22
2022-11-08T01:05:48.334Z,97746.72
2022-11-08T01:08:18.225Z,97767.16
2022-11-08T01:10:48.347Z,97770.09
2022-11-08T01:13:17.127Z,97759.47
2022-11-08T01:15:46.520Z,97783.69
2022-11-08T01:18:16.555Z,97787.22
2022-11-08T01:20:48.161Z,97777.38
2022-11-08T01:23:17.064Z,97786.16
2022-11-08T01:25:47.464Z,97807.72
2022-11-08T01:28:16.084Z,97806.28
2022-11-08T01:30:45.986Z,97797.19
2022-11-08T01:33:14.814Z,97808.31
2022-11-08T01:35:47.204Z,97788.53
2022-11-08T01:38:15.812Z,97790.22
2022-11-08T01:40:45.619Z,97793.94
2022-11-08T01:43:37.984Z,97788.28
2022-11-08T01:46:33.923Z,97793.19
2022-11-08T01:49:16.494Z,97806.09
2022-11-08T01:51:51.313Z,97809.09
2022-11-08T01:54:27.311Z,97818.06
2022-11-08T01:56:57.394Z,97828.84
2022-11-08T01:59:25.816Z,97856.72
2022-11-08T02:01:56.524Z,97835.50
2022-11-08T02:04:25.093Z,97835.38
2022-11-08T02:06:55.023Z,97833.91
2022-11-08T02:09:23.291Z,97851.72
2022-11-08T02:11:52.796Z,97854.16
2022-11-08T02:14:20.963Z,97860.72
2022-11-08T02:16:48.983Z,97858.28
2022-11-08T02:19:25.392Z,97854.81
2022-11-08T02:21:59.404Z,97861.56
2022-11-08T02:24:28.865Z,97854.38
2022-11-08T02:26:58.154Z,97872.06
2022-11-08T02:29:30.417Z,97877.53
2022-11-08T02:31:59.491Z,97868.38
2022-11-08T02:34:31.646Z,97862.84
2022-11-08T02:37:03.230Z,97860.75
2022-11-08T02:39:33.075Z,97857.91
2022-11-08T02:42:02.156Z,97849.72
2022-11-08T02:44:30.723Z,97843.94
2022-11-08T02:46:58.841Z,97846.91
2022-11-08T02:49:27.165Z,97844.59
2022-11-08T02:51:55.456Z,97832.59
2022-11-08T02:54:23.984Z,97824.22
2022-11-08T02:56:53.303Z,97823.56
2022-11-08T02:59:21.393Z,97821.25
2022-11-08T03:01:49.546Z,97820.63
2022-11-08T03:04:17.793Z,97812.88
2022-11-08T03:06:45.824Z,97811.16
2022-11-08T03:09:14.063Z,97814.03
2022-11-08T03:11:42.435Z,97815.59
2022-11-08T03:14:11.813Z,97803.53
2022-11-08T03:16:39.842Z,97798.38
2022-11-08T03:19:07.906Z,97813.38
2022-11-08T03:21:37.043Z,97809.06
2022-11-08T03:24:05.430Z,97804.66
2022-11-08T03:26:33.770Z,97804.66
2022-11-08T03:29:01.803Z,97801.13
2022-11-08T03:31:31.172Z,97806.38
2022-11-08T03:33:59.301Z,97797.75
2022-11-08T03:36:27.503Z,97797.75
2022-11-08T03:38:55.573Z,97811.81
2022-11-08T03:41:23.578Z,97812.03
2022-11-08T03:43:51.640Z,97827.25
2022-11-08T03:46:19.660Z,97819.38
2022-11-08T03:48:49.022Z,97801.09
2022-11-08T03:51:17.014Z,97802.66
2022-11-08T03:53:45.233Z,97805.50
2022-11-08T03:56:13.281Z,97811.19
2022-11-08T03:58:41.393Z,97819.13
2022-11-08T04:01:09.754Z,97823.34
2022-11-08T04:03:37.920Z,97826.69
2022-11-08T04:06:07.795Z,97827.53
2022-11-08T04:08:36.432Z,97824.06
2022-11-08T04:11:18.314Z,97822.28
2022-11-08T04:14:04.054Z,97805.28
2022-11-08T04:16:33.351Z,97802.97
2022-11-08T04:19:18.935Z,97810.81
2022-11-08T04:21:50.452Z,97806.09
2022-11-08T04:24:18.584Z,97805.16
2022-11-08T04:26:46.730Z,97811.44
2022-11-08T04:29:15.232Z,97814.28
2022-11-08T04:31:43.480Z,97805.22
2022-11-08T04:34:11.722Z,97819.28
2022-11-08T04:36:39.983Z,97804.78
2022-11-08T04:39:09.432Z,97799.38
2022-11-08T04:41:37.672Z,97803.97
2022-11-08T04:44:06.043Z,97805.63
2022-11-08T04:46:34.070Z,97802.94
2022-11-08T04:49:02.253Z,97798.41
2022-11-08T04:51:32.471Z,97797.25
2022-11-08T04:54:02.440Z,97799.47
2022-11-08T04:56:32.481Z,97795.81
2022-11-08T04:59:01.811Z,97789.53
2022-11-08T05:01:31.952Z,97787.53
2022-11-08T05:04:00.363Z,97787.44
2022-11-08T05:06:31.812Z,97786.38
2022-11-08T05:09:01.103Z,97788.06
2022-11-08T05:11:32.218Z,97785.53
2022-11-08T05:14:00.374Z,97784.91
2022-11-08T05:16:30.181Z,97789.34
2022-11-08T05:18:58.624Z,97771.69
2022-11-08T05:21:45.082Z,97778.44
2022-11-08T05:24:15.394Z,97778.31
2022-11-08T05:26:48.359Z,97797.53
2022-11-08T05:29:18.192Z,97787.22
2022-11-08T05:31:46.273Z,97767.06
2022-11-08T05:34:15.192Z,97764.53
2022-11-08T05:36:43.272Z,97765.50
2022-11-08T05:39:11.415Z,97764.66
2022-11-08T05:41:39.444Z,97768.66
2022-11-08T05:44:09.862Z,97755.13
2022-11-08T05:46:37.929Z,97762.03
2022-11-08T05:49:06.263Z,97763.72
2022-11-08T05:51:34.253Z,97756.56
2022-11-08T05:54:02.533Z,97751.31
2022-11-08T05:56:30.532Z,97755.66
2022-11-08T05:58:58.590Z,97742.53
2022-11-08T06:01:27.964Z,97731.94
2022-11-08T06:03:56.200Z,97730.13
2022-11-08T06:06:24.546Z,97728.66
2022-11-08T06:08:54.125Z,97737.72
2022-11-08T06:11:25.094Z,97741.47
2022-11-08T06:13:54.343Z,97745.03
2022-11-08T06:16:24.283Z,97751.13
2022-11-08T06:18:53.733Z,97756.50
2022-11-08T06:21:22.978Z,97752.91
2022-11-08T06:23:53.796Z,97755.53
2022-11-08T06:26:23.039Z,97756.38
2022-11-08T06:28:51.262Z,97759.53
2022-11-08T06:31:19.372Z,97760.16
2022-11-08T06:33:47.747Z,97765.50
2022-11-08T06:36:17.410Z,97760.38
2022-11-08T06:38:45.464Z,97766.34
2022-11-08T06:41:19.932Z,97767.59
2022-11-08T06:43:49.114Z,97770.22
2022-11-08T06:46:17.220Z,97772.13
2022-11-08T06:48:45.671Z,97778.63
2022-11-08T06:51:13.992Z,97777.28
2022-11-08T06:53:43.523Z,97777.81
2022-11-08T06:56:11.912Z,97776.00
2022-11-08T06:58:40.234Z,97777.81
2022-11-08T07:01:09.819Z,97777.47
2022-11-08T07:03:38.093Z,97774.00
2022-11-08T07:06:07.254Z,97776.00
2022-11-08T07:08:36.328Z,97764.88
2022-11-08T07:11:06.595Z,97769.41
2022-11-08T07:13:34.732Z,97764.38
2022-11-08T07:16:02.863Z,97769.81
2022-11-08T07:18:31.687Z,97772.56
2022-11-08T07:21:01.101Z,97776.97
2022-11-08T07:23:29.919Z,97766.47
2022-11-08T07:26:01.181Z,97772.84
2022-11-08T07:28:31.206Z,97761.81
2022-11-08T07:31:01.301Z,97757.41
2022-11-08T07:33:29.542Z,97751.56
2022-11-08T07:35:58.254Z,97752.59
2022-11-08T07:38:27.192Z,97755.22
2022-11-08T07:40:58.273Z,97752.28
2022-11-08T07:43:28.420Z,97761.81
2022-11-08T07:46:02.892Z,97754.59
2022-11-08T07:48:31.981Z,97764.16
2022-11-08T07:51:00.045Z,97746.59
2022-11-08T07:53:28.261Z,97757.09
2022-11-08T07:55:58.348Z,97767.50
2022-11-08T07:58:26.892Z,97777.69
2022-11-08T08:00:55.054Z,97765.81
2022-11-08T08:03:24.894Z,97763.50
2022-11-08T08:06:00.458Z,97768.56
2022-11-08T08:08:29.976Z,97771.72
2022-11-08T08:11:00.465Z,97769.16
2022-11-08T08:13:29.217Z,97766.81
2022-11-08T08:16:00.259Z,97760.28
2022-11-08T08:18:29.979Z,97759.03
2022-11-08T08:20:58.017Z,97765.13
2022-11-08T08:23:26.275Z,97767.44
2022-11-08T08:25:54.461Z,97767.72
2022-11-08T08:28:22.644Z,97768.84
2022-11-08T08:30:50.714Z,97765.16
2022-11-08T08:33:29.092Z,97780.81
2022-11-08T08:36:01.275Z,97772.31
2022-11-08T08:38:30.124Z,97773.38
2022-11-08T08:40:58.483Z,97767.53
2022-11-08T08:43:27.750Z,97768.44
2022-11-08T08:45:56.122Z,97771.59
2022-11-08T08:48:24.142Z,97781.91
2022-11-08T08:50:52.309Z,97771.88
2022-11-08T08:53:22.256Z,97773.03
2022-11-08T08:55:52.510Z,97774.44
2022-11-08T08:58:21.349Z,97777.59
2022-11-08T09:03:38.144Z,97765.38
2022-11-08T09:06:06.241Z,97763.75
2022-11-08T09:08:35.701Z,97770.75
2022-11-08T09:11:03.939Z,97766.69
2022-11-08T09:13:32.527Z,97771.97
2022-11-08T09:16:02.726Z,97778.91
2022-11-08T09:18:31.124Z,97772.78
2022-11-08T09:20:59.721Z,97761.44
2022-11-08T09:23:27.885Z,97752.59
2022-11-08T09:26:00.874Z,97761.31
2022-11-08T09:28:31.651Z,97755.78
2022-11-08T09:31:02.832Z,97776.69
2022-11-08T09:33:31.136Z,97759.69
2022-11-08T09:36:00.954Z,97771.16
2022-11-08T09:38:29.745Z,97768.53
2022-11-08T09:41:17.373Z,97777.00
2022-11-08T09:44:01.434Z,97770.78
2022-11-08T09:46:32.819Z,97774.63
2022-11-08T09:49:04.324Z,97774.72
2022-11-08T09:51:35.934Z,97768.75
2022-11-08T09:54:06.583Z,97763.88
2022-11-08T09:56:39.291Z,97758.41
2022-11-08T09:59:21.253Z,97755.66
2022-11-08T10:01:50.413Z,97760.28
2022-11-08T10:04:22.313Z,97748.09
2022-11-08T10:07:04.386Z,97764.69
2022-11-08T10:09:48.514Z,97760.41
2022-11-08T10:12:25.539Z,97755.03
2022-11-08T10:15:09.203Z,97761.03
2022-11-08T10:17:55.967Z,97747.78
2022-11-08T10:20:35.773Z,97754.03
2022-11-08T10:23:14.744Z,97752.97
2022-11-08T10:25:46.443Z,97748.09
2022-11-08T10:28:18.493Z,97745.00
2022-11-08T10:30:51.942Z,97749.34
2022-11-08T10:33:24.601Z,97744.56
2022-11-08T10:36:02.184Z,97744.09
2022-11-08T10:38:37.323Z,97749.13
2022-11-08T10:41:14.373Z,97741.09
2022-11-08T10:43:50.372Z,97748.28
2022-11-08T10:46:35.952Z,97741.34
2022-11-08T10:49:18.904Z,97720.66
2022-11-08T10:51:48.473Z,97719.81
2022-11-08T10:54:53.771Z,97713.94
2022-11-08T10:57:25.803Z,97719.81
2022-11-08T10:59:56.414Z,97712.72
2022-11-08T11:02:28.793Z,97721.09
2022-11-08T11:05:27.785Z,97725.66
2022-11-08T11:08:03.125Z,97731.41
2022-11-08T11:10:34.425Z,97738.84
2022-11-08T11:13:05.540Z,97719.59
2022-11-08T11:15:37.882Z,97728.44
2022-11-08T11:18:18.339Z,97728.53
2022-11-08T11:20:59.422Z,97720.16
2022-11-08T11:23:34.692Z,97706.81
2022-11-08T11:26:04.340Z,97708.41
2022-11-08T11:28:32.464Z,97707.22
2022-11-08T11:31:05.523Z,97722.75
2022-11-08T11:33:34.025Z,97728.03
2022-11-08T11:36:13.320Z,97724.44
2022-11-08T11:38:50.013Z,97714.75
2022-11-08T11:41:22.715Z,97715.09
2022-11-08T11:44:02.124Z,97721.19
2022-11-08T11:46:48.622Z,97729.16
2022-11-08T11:49:21.795Z,97735.97
2022-11-08T11:51:55.248Z,97731.53
2022-11-08T11:54:28.992Z,97728.69
2022-11-08T11:57:01.701Z,97727.03
2022-11-08T11:59:50.362Z,97730.63
2022-11-08T12:02:53.473Z,97727.03
2022-11-08T12:05:33.400Z,97747.25
2022-11-08T12:08:17.028Z,97737.56
2022-11-08T12:11:01.042Z,97740.44
2022-11-08T12:13:44.198Z,97719.84
2022-11-08T12:16:19.283Z,97725.34
2022-11-08T12:19:03.071Z,97713.03
2022-11-08T12:21:40.842Z,97715.53
2022-11-08T12:24:35.011Z,97709.69
2022-11-08T12:27:11.279Z,97709.09
2022-11-08T12:29:49.871Z,97698.13
2022-11-08T12:32:30.392Z,97709.84
2022-11-08T12:35:13.980Z,97699.19
2022-11-08T12:37:57.080Z,97700.78
2022-11-08T12:40:32.459Z,97694.44
2022-11-08T12:43:10.779Z,97705.78
2022-11-08T12:45:53.724Z,97701.16
2022-11-08T12:48:35.502Z,97700.75
2022-11-08T12:51:10.780Z,97706.53
2022-11-08T12:53:50.542Z,97708.44
2022-11-08T12:56:22.642Z,97685.94
2022-11-08T12:58:53.247Z,97695.25
2022-11-08T13:01:24.945Z,97700.53
2022-11-08T13:04:20.261Z,97708.66
2022-11-08T13:07:00.916Z,97689.06
2022-11-08T13:09:45.503Z,97700.78
2022-11-08T13:12:27.960Z,97703.28
2022-11-08T13:14:57.660Z,97698.75
2022-11-08T13:17:28.701Z,97683.91
2022-11-08T13:20:05.172Z,97690.94
2022-11-08T13:23:01.149Z,97682.44
2022-11-08T13:25:48.364Z,97695.25
2022-11-08T13:28:36.899Z,97689.47
2022-11-08T13:31:17.232Z,97680.88
2022-11-08T13:33:56.082Z,97684.72
2022-11-08T13:36:38.381Z,97686.53
2022-11-08T13:39:25.839Z,97679.44
2022-11-08T13:42:03.362Z,97673.72
2022-11-08T13:45:08.722Z,97682.78
2022-11-08T13:47:56.872Z,97686.38
2022-11-08T13:50:47.053Z,97673.94
2022-11-08T13:53:42.902Z,97696.56
2022-11-08T13:56:50.616Z,97679.19
2022-11-08T13:59:49.767Z,97681.84
2022-11-08T14:02:38.249Z,97678.25
2022-11-08T14:05:40.155Z,97682.31
2022-11-08T14:08:18.842Z,97676.09
2022-11-08T14:11:04.790Z,97674.44
2022-11-08T14:13:43.093Z,97669.88
2022-11-08T14:16:18.061Z,97684.63
2022-11-08T14:18:47.257Z,97687.13
2022-11-08T14:21:18.271Z,97679.94
2022-11-08T14:23:49.300Z,97680.19
2022-11-08T14:26:22.687Z,97694.53
2022-11-08T14:28:53.824Z,97675.53
2022-11-08T14:31:26.332Z,97687.84
2022-11-08T14:33:55.188Z,97685.44
2022-11-08T14:36:24.862Z,97680.75
2022-11-08T14:39:01.335Z,97685.41
2022-11-08T14:41:30.877Z,97691.63
2022-11-08T14:44:03.357Z,97693.88
2022-11-08T14:46:35.308Z,97702.59
2022-11-08T14:49:10.833Z,97695.03
2022-11-08T14:51:39.080Z,97696.13
2022-11-08T14:54:17.496Z,97688.81
2022-11-08T14:56:46.143Z,97696.50
2022-11-08T14:59:16.002Z,97682.97
2022-11-08T15:01:48.260Z,97685.50
2022-11-08T15:04:19.062Z,97692.91
2022-11-08T15:06:50.336Z,97669.00
2022-11-08T15:09:23.178Z,97680.09
2022-11-08T15:11:53.893Z,97655.22
2022-11-08T15:14:25.703Z,97662.25
2022-11-08T15:17:02.476Z,97677.19
2022-11-08T15:19:38.884Z,97681.00
2022-11-08T15:22:23.932Z,97676.13
2022-11-08T15:25:01.886Z,97696.78
2022-11-08T15:27:30.724Z,97693.56
2022-11-08T15:30:05.222Z,97704.16
2022-11-08T15:32:37.966Z,97710.34
2022-11-08T15:35:07.602Z,97709.63
2022-11-08T15:37:39.572Z,97716.28
2022-11-08T15:40:18.819Z,97709.69
2022-11-08T15:42:48.482Z,97706.56
2022-11-08T15:45:26.762Z,97713.13
2022-11-08T15:48:02.172Z,97718.59
2022-11-08T15:50:32.412Z,97717.75
2022-11-08T15:53:05.262Z,97716.63
2022-11-08T15:55:38.484Z,97721.38
2022-11-08T15:58:11.773Z,97713.41
2022-11-08T16:00:46.741Z,97717.88
2022-11-08T16:03:15.002Z,97720.41
2022-11-08T16:05:43.151Z,97719.34
2022-11-08T16:08:15.605Z,97721.41
2022-11-08T16:10:48.843Z,97711.03
2022-11-08T16:13:21.443Z,97718.50
2022-11-08T16:15:50.860Z,97725.53
2022-11-08T16:18:20.337Z,97723.56
2022-11-08T16:20:48.932Z,97724.44
2022-11-08T16:23:17.082Z,97724.53
2022-11-08T16:25:47.973Z,97723.91
2022-11-08T16:28:21.265Z,97725.28
2022-11-08T16:30:50.982Z,97730.75
2022-11-08T16:33:21.633Z,97730.13
2022-11-08T16:35:50.605Z,97721.72
2022-11-08T16:38:27.302Z,97732.22
2022-11-08T16:40:55.553Z,97729.91
2022-11-08T16:43:23.805Z,97728.03
2022-11-08T16:46:08.636Z,97733.06
2022-11-08T16:48:39.603Z,97738.13
2022-11-08T16:51:15.914Z,97734.31
2022-11-08T16:53:44.172Z,97734.13
2022-11-08T16:56:12.273Z,97741.25
2022-11-08T16:58:40.492Z,97732.63
2022-11-08T17:01:15.988Z,97740.00
2022-11-08T17:03:44.271Z,97737.72
2022-11-08T17:06:17.973Z,97740.75
2022-11-08T17:08:46.425Z,97749.88
2022-11-08T17:11:19.659Z,97745.88
2022-11-08T17:13:48.582Z,97741.16
2022-11-08T17:16:18.791Z,97751.94
2022-11-08T17:18:52.251Z,97741.25
2022-11-08T17:24:09.349Z,97741.47
2022-11-08T17:26:37.423Z,97743.25
2022-11-08T17:29:06.656Z,97750.91
2022-11-08T17:31:35.973Z,97744.63
2022-11-08T17:34:04.085Z,97755.13
2022-11-08T17:36:32.113Z,97750.91
2022-11-08T17:39:00.273Z,97755.75
2022-11-08T17:41:28.503Z,97742.19
2022-11-08T17:43:56.604Z,97748.16
2022-11-08T17:46:25.398Z,97766.03
2022-11-08T17:48:54.993Z,97758.25
2022-11-08T17:51:23.004Z,97750.28
2022-11-08T17:53:51.162Z,97761.00
2022-11-08T17:56:19.314Z,97767.41
2022-11-08T17:58:47.414Z,97764.78
2022-11-08T18:01:16.533Z,97766.78
2022-11-08T18:03:44.743Z,97760.16
2022-11-08T18:06:16.489Z,97759.91
2022-11-08T18:08:45.062Z,97766.22
2022-11-08T18:11:13.160Z,97761.91
2022-11-08T18:13:41.423Z,97770.81
2022-11-08T18:16:11.932Z,97768.94
2022-11-08T18:18:41.897Z,97776.69
2022-11-08T18:21:13.392Z,97784.88
2022-11-08T18:23:47.053Z,97789.47
2022-11-08T18:26:17.631Z,97793.88
2022-11-08T18:28:46.839Z,97793.69
2022-11-08T18:31:17.272Z,97799.09
2022-11-08T18:33:46.262Z,97795.59
2022-11-08T18:36:16.421Z,97806.63
2022-11-08T18:38:46.591Z,97807.78
2022-11-08T18:41:16.846Z,97803.50
2022-11-08T18:43:45.593Z,97813.56
2022-11-08T18:46:16.291Z,97805.16
2022-11-08T18:48:45.091Z,97812.53
2022-11-08T18:51:14.873Z,97824.75
2022-11-08T18:53:43.791Z,97820.22
2022-11-08T18:56:14.251Z,97823.56
2022-11-08T18:58:42.499Z,97830.50
2022-11-08T19:01:10.522Z,97831.44
2022-11-08T19:03:39.062Z,97829.16
2022-11-08T19:06:07.622Z,97827.03
2022-11-08T19:08:36.942Z,97826.81
2022-11-08T19:11:07.930Z,97839.63
2022-11-08T19:13:39.474Z,97838.34
2022-11-08T19:16:10.092Z,97832.91
2022-11-08T19:18:38.732Z,97834.34
2022-11-08T19:21:09.142Z,97824.47
2022-11-08T19:23:39.062Z,97826.97
2022-11-08T19:26:09.432Z,97837.09
2022-11-08T19:28:40.932Z,97824.38
2022-11-08T19:31:10.162Z,97834.16
2022-11-08T19:33:38.362Z,97834.16
2022-11-08T19:36:09.329Z,97841.34
2022-11-08T19:38:38.973Z,97845.13
2022-11-08T19:41:09.362Z,97842.16
2022-11-08T19:43:40.665Z,97849.22
2022-11-08T19:46:11.633Z,97858.97
2022-11-08T19:48:41.721Z,97858.97
2022-11-08T19:51:14.052Z,97871.41
2022-11-08T19:53:42.334Z,97876.66
2022-11-08T19:56:11.943Z,97875.81
2022-11-08T19:58:41.863Z,97887.19
2022-11-08T20:01:11.300Z,97873.31
2022-11-08T20:03:39.843Z,97864.47
2022-11-08T20:06:08.988Z,97873.31
2022-11-08T20:08:37.152Z,97880.25
2022-11-08T20:11:12.184Z,97894.84
2022-11-08T20:13:41.712Z,97885.28
2022-11-08T20:16:11.931Z,97881.69
2022-11-08T20:18:40.653Z,97887.19
2022-11-08T20:21:10.204Z,97899.81
2022-11-08T20:23:39.362Z,97896.66
2022-11-08T20:26:09.542Z,97903.59
2022-11-08T20:28:41.744Z,97908.03
2022-11-08T20:31:17.146Z,97912.41
2022-11-08T20:33:48.962Z,97910.25
2022-11-08T20:36:19.261Z,97908.25
2022-11-08T20:38:47.638Z,97933.06
2022-11-08T20:41:17.352Z,97932.19
2022-11-08T20:43:46.823Z,97947.78
2022-11-08T20:46:18.182Z,97946.50
2022-11-08T20:48:51.419Z,97939.34
2022-11-08T20:51:21.352Z,97959.53
2022-11-08T20:53:49.722Z,97964.69
2022-11-08T20:56:19.822Z,97962.28
2022-11-08T20:58:49.316Z,97971.13
2022-11-08T21:01:20.596Z,97970.47
2022-11-08T21:03:48.765Z,97972.03
2022-11-08T21:06:18.522Z,97973.81
2022-11-08T21:09:15.773Z,97976.69
2022-11-08T21:11:35.941Z,97973.00
2022-11-08T21:14:04.703Z,97973.81
2022-11-08T21:16:59.320Z,97967.97
2022-11-08T21:19:25.424Z,97971.00
2022-11-08T21:22:13.485Z,97975.41
2022-11-08T21:24:41.763Z,97975.72
2022-11-08T21:27:10.132Z,97976.03
2022-11-08T21:29:38.341Z,97981.09
2022-11-08T21:32:08.415Z,97969.31
2022-11-08T21:34:36.672Z,97980.44
2022-11-08T21:37:04.831Z,97983.38
2022-11-08T21:39:33.023Z,97982.25
2022-11-08T21:42:01.050Z,97977.22
2022-11-08T21:44:29.211Z,97988.88
2022-11-08T21:46:57.331Z,97991.91
2022-11-08T21:49:26.831Z,97981.81
2022-11-08T21:51:54.980Z,97991.59
2022-11-08T21:54:23.263Z,97988.97
2022-11-08T21:56:51.291Z,97992.75
2022-11-08T21:59:19.488Z,97996.31
2022-11-08T22:01:47.691Z,97989.50
2022-11-08T22:04:15.754Z,97994.09
2022-11-08T22:06:47.849Z,97996.44
2022-11-08T22:09:16.251Z,98004.22
2022-11-08T22:11:44.272Z,98015.25
2022-11-08T22:14:12.420Z,98023.56
2022-11-08T22:16:40.571Z,98018.84
2022-11-08T22:19:09.421Z,98006.72
2022-11-08T22:21:38.882Z,98011.25
2022-11-08T22:24:10.093Z,98015.03
2022-11-08T22:26:38.684Z,98019.44
2022-11-08T22:29:07.771Z,98023.69
2022-11-08T22:31:36.147Z,98023.47
2022-11-08T22:34:04.762Z,98029.97
2022-11-08T22:36:32.977Z,98022.59
2022-11-08T22:39:01.321Z,98033.53
2022-11-08T22:41:31.133Z,98038.44
2022-11-08T22:43:59.472Z,98033.84
2022-11-08T22:46:27.611Z,98043.00
2022-11-08T22:48:55.701Z,98041.72
2022-11-08T22:51:23.911Z,98041.53
2022-11-08T22:53:51.964Z,98042.91
2022-11-08T22:56:20.111Z,98052.84
2022-11-08T22:58:49.451Z,98056.84
2022-11-08T23:01:17.563Z,98067.75
2022-11-08T23:03:46.857Z,98060.38
2022-11-08T23:06:15.312Z,98068.44
2022-11-08T23:08:43.811Z,98071.06
2022-11-08T23:11:29.317Z,98074.75
2022-11-08T23:14:16.471Z,98083.22
2022-11-08T23:16:46.431Z,98079.09
2022-11-08T23:19:34.072Z,98090.56
2022-11-08T23:22:20.609Z,98101.25
2022-11-08T23:24:48.711Z,98091.34
2022-11-08T23:27:36.325Z,98104.56
2022-11-08T23:30:24.478Z,98107.47
2022-11-08T23:32:53.351Z,98111.88
2022-11-08T23:35:22.738Z,98103.44
2022-11-08T23:37:50.991Z,98107.22
2022-11-08T23:40:37.909Z,98113.09
2022-11-08T23:43:24.891Z,98111.44
2022-11-08T23:45:54.324Z,98109.06
2022-11-08T23:48:22.451Z,98103.38
2022-11-08T23:50:52.101Z,98111.81
2022-11-08T23:53:21.149Z,98109.06
2022-11-08T23:55:49.572Z,98117.91
2022-11-08T23:58:18.008Z,98110.69
